sensor_id;sensor_type;location;lat;lon;timestamp;temperature;humidity
17859;DHT22;35426;30.698;104.050;2023-12-29T00:01:31;11.20;99.90
17859;DHT22;35426;30.698;104.050;2023-12-29T00:04:06;11.10;99.90
17859;DHT22;35426;30.698;104.050;2023-12-29T00:06:40;11.20;99.90
17859;DHT22;35426;30.698;104.050;2023-12-29T00:09:28;11.10;99.90
17859;DHT22;35426;30.698;104.050;2023-12-29T00:12:09;11.10;99.90
17859;DHT22;35426;30.698;104.050;2023-12-29T00:14:46;11.10;99.90
17859;DHT22;35426;30.698;104.050;2023-12-29T00:17:20;11.00;99.90
17859;DHT22;35426;30.698;104.050;2023-12-29T00:19:55;10.90;99.90
17859;DHT22;35426;30.698;104.050;2023-12-29T00:22:29;10.90;99.90
17859;DHT22;35426;30.698;104.050;2023-12-29T00:25:04;11.00;99.90
17859;DHT22;35426;30.698;104.050;2023-12-29T00:27:39;11.20;99.90
17859;DHT22;35426;30.698;104.050;2023-12-29T00:30:15;11.10;99.90
17859;DHT22;35426;30.698;104.050;2023-12-29T00:32:51;11.00;99.90
17859;DHT22;35426;30.698;104.050;2023-12-29T00:35:25;11.00;99.90
17859;DHT22;35426;30.698;104.050;2023-12-29T00:37:59;11.00;99.90
17859;DHT22;35426;30.698;104.050;2023-12-29T00:40:32;11.00;99.90
17859;DHT22;35426;30.698;104.050;2023-12-29T00:43:07;11.20;99.90
17859;DHT22;35426;30.698;104.050;2023-12-29T00:45:43;11.20;99.90
17859;DHT22;35426;30.698;104.050;2023-12-29T00:48:18;11.30;99.90
17859;DHT22;35426;30.698;104.050;2023-12-29T00:50:53;11.50;99.90
17859;DHT22;35426;30.698;104.050;2023-12-29T00:53:28;11.30;99.90
17859;DHT22;35426;30.698;104.050;2023-12-29T00:56:02;11.40;99.90
17859;DHT22;35426;30.698;104.050;2023-12-29T00:58:36;11.50;99.90
17859;DHT22;35426;30.698;104.050;2023-12-29T01:01:14;11.50;99.90
17859;DHT22;35426;30.698;104.050;2023-12-29T01:03:48;11.50;99.90
17859;DHT22;35426;30.698;104.050;2023-12-29T01:06:25;11.60;99.90
17859;DHT22;35426;30.698;104.050;2023-12-29T01:09:00;11.60;99.90
17859;DHT22;35426;30.698;104.050;2023-12-29T01:11:34;11.70;99.90
17859;DHT22;35426;30.698;104.050;2023-12-29T01:14:12;11.80;99.90
17859;DHT22;35426;30.698;104.050;2023-12-29T01:16:48;11.90;99.90
17859;DHT22;35426;30.698;104.050;2023-12-29T01:19:26;11.70;99.90
17859;DHT22;35426;30.698;104.050;2023-12-29T01:22:00;11.80;99.90
17859;DHT22;35426;30.698;104.050;2023-12-29T01:24:35;11.80;99.90
17859;DHT22;35426;30.698;104.050;2023-12-29T01:27:14;11.80;99.90
17859;DHT22;35426;30.698;104.050;2023-12-29T01:29:50;11.80;99.90
17859;DHT22;35426;30.698;104.050;2023-12-29T01:32:28;11.90;99.90
17859;DHT22;35426;30.698;104.050;2023-12-29T01:35:02;12.00;99.90
17859;DHT22;35426;30.698;104.050;2023-12-29T01:37:38;11.90;99.90
17859;DHT22;35426;30.698;104.050;2023-12-29T01:40:12;11.90;99.90
17859;DHT22;35426;30.698;104.050;2023-12-29T01:42:47;12.00;99.90
17859;DHT22;35426;30.698;104.050;2023-12-29T01:45:25;12.20;99.90
17859;DHT22;35426;30.698;104.050;2023-12-29T01:48:04;12.30;99.90
17859;DHT22;35426;30.698;104.050;2023-12-29T01:50:40;12.50;99.90
17859;DHT22;35426;30.698;104.050;2023-12-29T01:53:16;12.70;99.90
17859;DHT22;35426;30.698;104.050;2023-12-29T01:56:03;12.70;99.90
17859;DHT22;35426;30.698;104.050;2023-12-29T01:58:38;12.90;99.90
17859;DHT22;35426;30.698;104.050;2023-12-29T02:01:12;13.10;99.90
17859;DHT22;35426;30.698;104.050;2023-12-29T02:03:50;13.10;99.90
17859;DHT22;35426;30.698;104.050;2023-12-29T02:06:25;13.20;99.90
17859;DHT22;35426;30.698;104.050;2023-12-29T02:08:59;13.40;99.90
17859;DHT22;35426;30.698;104.050;2023-12-29T02:11:35;13.70;99.90
17859;DHT22;35426;30.698;104.050;2023-12-29T02:14:09;14.00;99.90
17859;DHT22;35426;30.698;104.050;2023-12-29T02:16:50;14.10;99.90
17859;DHT22;35426;30.698;104.050;2023-12-29T02:19:41;14.30;99.90
17859;DHT22;35426;30.698;104.050;2023-12-29T02:22:15;14.70;99.90
17859;DHT22;35426;30.698;104.050;2023-12-29T02:24:52;15.10;99.90
17859;DHT22;35426;30.698;104.050;2023-12-29T02:27:36;15.50;99.90
17859;DHT22;35426;30.698;104.050;2023-12-29T02:30:20;15.70;99.90
17859;DHT22;35426;30.698;104.050;2023-12-29T02:32:58;15.90;99.90
17859;DHT22;35426;30.698;104.050;2023-12-29T02:35:35;15.70;99.90
17859;DHT22;35426;30.698;104.050;2023-12-29T02:38:12;15.60;99.90
17859;DHT22;35426;30.698;104.050;2023-12-29T02:40:49;15.80;99.90
17859;DHT22;35426;30.698;104.050;2023-12-29T02:43:23;15.80;99.90
17859;DHT22;35426;30.698;104.050;2023-12-29T02:45:59;15.80;99.90
17859;DHT22;35426;30.698;104.050;2023-12-29T02:48:34;15.70;99.90
17859;DHT22;35426;30.698;104.050;2023-12-29T02:51:09;15.50;99.90
17859;DHT22;35426;30.698;104.050;2023-12-29T02:53:56;15.80;99.90
17859;DHT22;35426;30.698;104.050;2023-12-29T02:56:33;16.10;99.90
17859;DHT22;35426;30.698;104.050;2023-12-29T02:59:08;16.20;99.90
17859;DHT22;35426;30.698;104.050;2023-12-29T03:01:42;16.30;99.90
17859;DHT22;35426;30.698;104.050;2023-12-29T03:04:17;16.10;99.90
17859;DHT22;35426;30.698;104.050;2023-12-29T03:06:52;15.90;99.90
17859;DHT22;35426;30.698;104.050;2023-12-29T03:09:25;15.70;99.90
17859;DHT22;35426;30.698;104.050;2023-12-29T03:12:02;15.50;99.90
17859;DHT22;35426;30.698;104.050;2023-12-29T03:14:36;15.70;99.90
17859;DHT22;35426;30.698;104.050;2023-12-29T03:17:16;15.80;99.90
17859;DHT22;35426;30.698;104.050;2023-12-29T03:19:50;16.00;99.90
17859;DHT22;35426;30.698;104.050;2023-12-29T03:22:25;16.20;99.90
17859;DHT22;35426;30.698;104.050;2023-12-29T03:24:59;16.40;99.90
17859;DHT22;35426;30.698;104.050;2023-12-29T03:27:35;16.50;99.90
17859;DHT22;35426;30.698;104.050;2023-12-29T03:30:10;16.80;99.90
17859;DHT22;35426;30.698;104.050;2023-12-29T03:32:45;16.60;99.90
17859;DHT22;35426;30.698;104.050;2023-12-29T03:35:19;16.50;99.90
17859;DHT22;35426;30.698;104.050;2023-12-29T03:37:54;16.40;99.90
17859;DHT22;35426;30.698;104.050;2023-12-29T03:40:29;16.40;99.90
17859;DHT22;35426;30.698;104.050;2023-12-29T03:43:09;16.50;99.90
17859;DHT22;35426;30.698;104.050;2023-12-29T03:45:43;16.50;99.90
17859;DHT22;35426;30.698;104.050;2023-12-29T03:48:17;16.40;99.90
17859;DHT22;35426;30.698;104.050;2023-12-29T03:50:51;16.40;99.90
17859;DHT22;35426;30.698;104.050;2023-12-29T03:53:26;16.50;99.90
17859;DHT22;35426;30.698;104.050;2023-12-29T03:56:04;16.50;99.90
17859;DHT22;35426;30.698;104.050;2023-12-29T03:58:39;16.30;99.90
17859;DHT22;35426;30.698;104.050;2023-12-29T04:01:17;16.40;99.90
17859;DHT22;35426;30.698;104.050;2023-12-29T04:03:54;16.20;99.90
17859;DHT22;35426;30.698;104.050;2023-12-29T04:06:28;16.20;99.90
17859;DHT22;35426;30.698;104.050;2023-12-29T04:09:02;15.90;99.90
17859;DHT22;35426;30.698;104.050;2023-12-29T04:11:36;16.10;99.90
17859;DHT22;35426;30.698;104.050;2023-12-29T04:14:12;16.20;99.90
17859;DHT22;35426;30.698;104.050;2023-12-29T04:16:47;16.10;99.90
17859;DHT22;35426;30.698;104.050;2023-12-29T04:19:23;16.10;99.90
17859;DHT22;35426;30.698;104.050;2023-12-29T04:21:58;16.10;99.90
17859;DHT22;35426;30.698;104.050;2023-12-29T04:24:33;16.10;99.90
17859;DHT22;35426;30.698;104.050;2023-12-29T04:27:06;16.20;99.90
17859;DHT22;35426;30.698;104.050;2023-12-29T04:29:45;16.10;99.90
17859;DHT22;35426;30.698;104.050;2023-12-29T04:32:20;16.10;99.90
17859;DHT22;35426;30.698;104.050;2023-12-29T04:34:54;16.00;99.90
17859;DHT22;35426;30.698;104.050;2023-12-29T04:37:29;16.10;99.90
17859;DHT22;35426;30.698;104.050;2023-12-29T04:40:03;16.30;99.90
17859;DHT22;35426;30.698;104.050;2023-12-29T04:42:38;16.20;99.90
17859;DHT22;35426;30.698;104.050;2023-12-29T04:45:17;16.20;99.90
17859;DHT22;35426;30.698;104.050;2023-12-29T04:47:51;16.10;99.90
17859;DHT22;35426;30.698;104.050;2023-12-29T04:50:26;15.80;99.90
17859;DHT22;35426;30.698;104.050;2023-12-29T04:53:02;15.90;99.90
17859;DHT22;35426;30.698;104.050;2023-12-29T04:55:36;16.20;99.90
17859;DHT22;35426;30.698;104.050;2023-12-29T04:58:11;16.40;99.90
17859;DHT22;35426;30.698;104.050;2023-12-29T05:00:47;16.30;99.90
17859;DHT22;35426;30.698;104.050;2023-12-29T05:03:22;16.20;99.90
17859;DHT22;35426;30.698;104.050;2023-12-29T05:05:56;15.80;99.90
17859;DHT22;35426;30.698;104.050;2023-12-29T05:08:31;16.10;99.90
17859;DHT22;35426;30.698;104.050;2023-12-29T05:11:05;16.30;99.90
17859;DHT22;35426;30.698;104.050;2023-12-29T05:13:40;16.40;99.90
17859;DHT22;35426;30.698;104.050;2023-12-29T05:16:19;16.20;99.90
17859;DHT22;35426;30.698;104.050;2023-12-29T05:18:54;16.40;99.90
17859;DHT22;35426;30.698;104.050;2023-12-29T05:21:30;16.60;99.90
17859;DHT22;35426;30.698;104.050;2023-12-29T05:24:04;16.40;99.90
17859;DHT22;35426;30.698;104.050;2023-12-29T05:26:38;16.40;99.90
17859;DHT22;35426;30.698;104.050;2023-12-29T05:29:13;16.40;99.90
17859;DHT22;35426;30.698;104.050;2023-12-29T05:31:49;16.50;99.90
17859;DHT22;35426;30.698;104.050;2023-12-29T05:34:24;16.30;99.90
17859;DHT22;35426;30.698;104.050;2023-12-29T05:36:57;16.30;99.90
17859;DHT22;35426;30.698;104.050;2023-12-29T05:39:33;16.30;99.90
17859;DHT22;35426;30.698;104.050;2023-12-29T05:42:06;16.00;99.90
17859;DHT22;35426;30.698;104.050;2023-12-29T05:44:41;16.00;99.90
17859;DHT22;35426;30.698;104.050;2023-12-29T05:47:18;16.10;99.90
17859;DHT22;35426;30.698;104.050;2023-12-29T05:49:52;16.00;99.90
17859;DHT22;35426;30.698;104.050;2023-12-29T05:52:26;15.80;99.90
17859;DHT22;35426;30.698;104.050;2023-12-29T05:55:00;15.90;99.90
17859;DHT22;35426;30.698;104.050;2023-12-29T05:57:34;16.00;99.90
17859;DHT22;35426;30.698;104.050;2023-12-29T06:00:08;15.90;99.90
17859;DHT22;35426;30.698;104.050;2023-12-29T06:02:47;15.60;99.90
17859;DHT22;35426;30.698;104.050;2023-12-29T06:05:23;16.00;99.90
17859;DHT22;35426;30.698;104.050;2023-12-29T06:07:57;16.20;99.90
17859;DHT22;35426;30.698;104.050;2023-12-29T06:10:33;16.30;99.90
17859;DHT22;35426;30.698;104.050;2023-12-29T06:13:09;16.10;99.90
17859;DHT22;35426;30.698;104.050;2023-12-29T06:15:45;16.10;99.90
17859;DHT22;35426;30.698;104.050;2023-12-29T06:18:22;16.30;99.90
17859;DHT22;35426;30.698;104.050;2023-12-29T06:20:57;16.40;99.90
17859;DHT22;35426;30.698;104.050;2023-12-29T06:23:31;16.00;99.90
17859;DHT22;35426;30.698;104.050;2023-12-29T06:26:04;16.10;99.90
17859;DHT22;35426;30.698;104.050;2023-12-29T06:28:43;16.00;99.90
17859;DHT22;35426;30.698;104.050;2023-12-29T06:31:18;16.30;99.90
17859;DHT22;35426;30.698;104.050;2023-12-29T06:33:54;16.20;99.90
17859;DHT22;35426;30.698;104.050;2023-12-29T06:36:31;16.10;99.90
17859;DHT22;35426;30.698;104.050;2023-12-29T06:39:06;16.20;99.90
17859;DHT22;35426;30.698;104.050;2023-12-29T06:41:40;16.20;99.90
17859;DHT22;35426;30.698;104.050;2023-12-29T06:44:14;16.20;99.90
17859;DHT22;35426;30.698;104.050;2023-12-29T06:46:49;16.40;99.90
17859;DHT22;35426;30.698;104.050;2023-12-29T06:49:25;16.00;99.90
17859;DHT22;35426;30.698;104.050;2023-12-29T06:52:00;15.90;99.90
17859;DHT22;35426;30.698;104.050;2023-12-29T06:54:35;16.20;99.90
17859;DHT22;35426;30.698;104.050;2023-12-29T06:57:09;16.30;99.90
17859;DHT22;35426;30.698;104.050;2023-12-29T06:59:45;16.30;99.90
17859;DHT22;35426;30.698;104.050;2023-12-29T07:02:22;16.50;99.90
17859;DHT22;35426;30.698;104.050;2023-12-29T07:04:59;16.50;99.90
17859;DHT22;35426;30.698;104.050;2023-12-29T07:07:33;16.50;99.90
17859;DHT22;35426;30.698;104.050;2023-12-29T07:10:19;16.50;99.90
17859;DHT22;35426;30.698;104.050;2023-12-29T07:12:54;16.50;99.90
17859;DHT22;35426;30.698;104.050;2023-12-29T07:15:28;16.40;99.90
17859;DHT22;35426;30.698;104.050;2023-12-29T07:18:02;16.20;99.90
17859;DHT22;35426;30.698;104.050;2023-12-29T07:20:39;16.00;99.90
17859;DHT22;35426;30.698;104.050;2023-12-29T07:23:14;16.20;99.90
17859;DHT22;35426;30.698;104.050;2023-12-29T07:25:49;16.30;99.90
17859;DHT22;35426;30.698;104.050;2023-12-29T07:28:46;16.30;99.90
17859;DHT22;35426;30.698;104.050;2023-12-29T07:31:25;16.30;99.90
17859;DHT22;35426;30.698;104.050;2023-12-29T07:34:00;16.20;99.90
17859;DHT22;35426;30.698;104.050;2023-12-29T07:36:39;16.30;99.90
17859;DHT22;35426;30.698;104.050;2023-12-29T07:39:14;16.30;99.90
17859;DHT22;35426;30.698;104.050;2023-12-29T07:41:48;16.20;99.90
17859;DHT22;35426;30.698;104.050;2023-12-29T07:44:30;16.00;99.90
17859;DHT22;35426;30.698;104.050;2023-12-29T07:47:13;15.90;99.90
17859;DHT22;35426;30.698;104.050;2023-12-29T07:49:48;16.10;99.90
17859;DHT22;35426;30.698;104.050;2023-12-29T07:52:24;16.10;99.90
17859;DHT22;35426;30.698;104.050;2023-12-29T07:54:58;16.00;99.90
17859;DHT22;35426;30.698;104.050;2023-12-29T07:57:33;15.90;99.90
17859;DHT22;35426;30.698;104.050;2023-12-29T08:00:08;16.10;99.90
17859;DHT22;35426;30.698;104.050;2023-12-29T08:02:42;16.20;99.90
17859;DHT22;35426;30.698;104.050;2023-12-29T08:05:15;16.10;99.90
17859;DHT22;35426;30.698;104.050;2023-12-29T08:07:53;15.90;99.90
17859;DHT22;35426;30.698;104.050;2023-12-29T08:10:26;15.80;99.90
17859;DHT22;35426;30.698;104.050;2023-12-29T08:13:05;15.90;99.90
17859;DHT22;35426;30.698;104.050;2023-12-29T08:15:40;16.00;99.90
17859;DHT22;35426;30.698;104.050;2023-12-29T08:18:14;16.00;99.90
17859;DHT22;35426;30.698;104.050;2023-12-29T08:20:51;16.00;99.90
17859;DHT22;35426;30.698;104.050;2023-12-29T08:23:28;15.80;99.90
17859;DHT22;35426;30.698;104.050;2023-12-29T08:26:04;15.80;99.90
17859;DHT22;35426;30.698;104.050;2023-12-29T08:28:39;15.70;99.90
17859;DHT22;35426;30.698;104.050;2023-12-29T08:31:14;15.80;99.90
17859;DHT22;35426;30.698;104.050;2023-12-29T08:33:48;15.90;99.90
17859;DHT22;35426;30.698;104.050;2023-12-29T08:36:23;15.80;99.90
17859;DHT22;35426;30.698;104.050;2023-12-29T08:38:58;15.80;99.90
17859;DHT22;35426;30.698;104.050;2023-12-29T08:41:33;15.80;99.90
17859;DHT22;35426;30.698;104.050;2023-12-29T08:44:07;15.80;99.90
17859;DHT22;35426;30.698;104.050;2023-12-29T08:46:41;15.80;99.90
17859;DHT22;35426;30.698;104.050;2023-12-29T08:49:15;15.70;99.90
17859;DHT22;35426;30.698;104.050;2023-12-29T08:51:51;15.60;99.90
17859;DHT22;35426;30.698;104.050;2023-12-29T08:54:29;15.50;99.90
17859;DHT22;35426;30.698;104.050;2023-12-29T08:57:03;15.50;99.90
17859;DHT22;35426;30.698;104.050;2023-12-29T08:59:38;15.40;99.90
17859;DHT22;35426;30.698;104.050;2023-12-29T09:02:12;15.50;99.90
17859;DHT22;35426;30.698;104.050;2023-12-29T09:04:47;15.40;99.90
17859;DHT22;35426;30.698;104.050;2023-12-29T09:07:21;15.40;99.90
17859;DHT22;35426;30.698;104.050;2023-12-29T09:09:57;15.40;99.90
17859;DHT22;35426;30.698;104.050;2023-12-29T09:12:33;15.30;99.90
17859;DHT22;35426;30.698;104.050;2023-12-29T09:15:14;15.20;99.90
17859;DHT22;35426;30.698;104.050;2023-12-29T09:17:49;15.20;99.90
17859;DHT22;35426;30.698;104.050;2023-12-29T09:20:23;15.10;99.90
17859;DHT22;35426;30.698;104.050;2023-12-29T09:23:00;15.10;99.90
17859;DHT22;35426;30.698;104.050;2023-12-29T09:25:38;15.00;99.90
17859;DHT22;35426;30.698;104.050;2023-12-29T09:28:13;14.90;99.90
17859;DHT22;35426;30.698;104.050;2023-12-29T09:30:48;14.90;99.90
17859;DHT22;35426;30.698;104.050;2023-12-29T09:33:23;14.90;99.90
17859;DHT22;35426;30.698;104.050;2023-12-29T09:35:58;14.90;99.90
17859;DHT22;35426;30.698;104.050;2023-12-29T09:38:43;14.80;99.90
17859;DHT22;35426;30.698;104.050;2023-12-29T09:41:20;14.80;99.90
17859;DHT22;35426;30.698;104.050;2023-12-29T09:43:53;14.80;99.90
17859;DHT22;35426;30.698;104.050;2023-12-29T09:46:31;14.70;99.90
17859;DHT22;35426;30.698;104.050;2023-12-29T09:49:09;14.60;99.90
17859;DHT22;35426;30.698;104.050;2023-12-29T09:51:43;14.60;99.90
17859;DHT22;35426;30.698;104.050;2023-12-29T09:54:20;14.50;99.90
17859;DHT22;35426;30.698;104.050;2023-12-29T09:56:58;14.50;99.90
17859;DHT22;35426;30.698;104.050;2023-12-29T09:59:36;14.40;99.90
17859;DHT22;35426;30.698;104.050;2023-12-29T10:02:38;14.30;99.90
17859;DHT22;35426;30.698;104.050;2023-12-29T10:05:12;14.30;99.90
17859;DHT22;35426;30.698;104.050;2023-12-29T10:07:47;14.20;99.90
17859;DHT22;35426;30.698;104.050;2023-12-29T10:10:21;14.20;99.90
17859;DHT22;35426;30.698;104.050;2023-12-29T10:12:59;14.10;99.90
17859;DHT22;35426;30.698;104.050;2023-12-29T10:15:46;14.10;99.90
17859;DHT22;35426;30.698;104.050;2023-12-29T10:18:30;14.00;99.90
17859;DHT22;35426;30.698;104.050;2023-12-29T10:21:12;14.00;99.90
17859;DHT22;35426;30.698;104.050;2023-12-29T10:23:53;14.00;99.90
17859;DHT22;35426;30.698;104.050;2023-12-29T10:26:29;13.90;99.90
17859;DHT22;35426;30.698;104.050;2023-12-29T10:29:06;13.90;99.90
17859;DHT22;35426;30.698;104.050;2023-12-29T10:31:40;13.80;99.90
17859;DHT22;35426;30.698;104.050;2023-12-29T10:34:22;13.80;99.90
17859;DHT22;35426;30.698;104.050;2023-12-29T10:36:59;13.80;99.90
17859;DHT22;35426;30.698;104.050;2023-12-29T10:39:38;13.80;99.90
17859;DHT22;35426;30.698;104.050;2023-12-29T10:42:11;13.70;99.90
17859;DHT22;35426;30.698;104.050;2023-12-29T10:45:05;13.70;99.90
17859;DHT22;35426;30.698;104.050;2023-12-29T10:47:46;13.60;99.90
17859;DHT22;35426;30.698;104.050;2023-12-29T10:50:19;13.60;99.90
17859;DHT22;35426;30.698;104.050;2023-12-29T10:53:11;13.60;99.90
17859;DHT22;35426;30.698;104.050;2023-12-29T10:55:46;13.60;99.90
17859;DHT22;35426;30.698;104.050;2023-12-29T10:58:22;13.50;99.90
17859;DHT22;35426;30.698;104.050;2023-12-29T11:01:00;13.50;99.90
17859;DHT22;35426;30.698;104.050;2023-12-29T11:03:39;13.50;99.90
17859;DHT22;35426;30.698;104.050;2023-12-29T11:06:14;13.50;99.90
17859;DHT22;35426;30.698;104.050;2023-12-29T11:08:48;13.50;99.90
17859;DHT22;35426;30.698;104.050;2023-12-29T11:11:23;13.50;99.90
17859;DHT22;35426;30.698;104.050;2023-12-29T11:14:00;13.50;99.90
17859;DHT22;35426;30.698;104.050;2023-12-29T11:16:37;13.40;99.90
17859;DHT22;35426;30.698;104.050;2023-12-29T11:19:14;13.40;99.90
17859;DHT22;35426;30.698;104.050;2023-12-29T11:21:50;13.40;99.90
17859;DHT22;35426;30.698;104.050;2023-12-29T11:24:25;13.40;99.90
17859;DHT22;35426;30.698;104.050;2023-12-29T11:27:13;13.40;99.90
17859;DHT22;35426;30.698;104.050;2023-12-29T11:29:47;13.40;99.90
17859;DHT22;35426;30.698;104.050;2023-12-29T11:32:29;13.30;99.90
17859;DHT22;35426;30.698;104.050;2023-12-29T11:35:12;13.30;99.90
17859;DHT22;35426;30.698;104.050;2023-12-29T11:38:02;13.20;99.90
17859;DHT22;35426;30.698;104.050;2023-12-29T11:40:43;13.20;99.90
17859;DHT22;35426;30.698;104.050;2023-12-29T11:43:18;13.20;99.90
17859;DHT22;35426;30.698;104.050;2023-12-29T11:45:54;13.20;99.90
17859;DHT22;35426;30.698;104.050;2023-12-29T11:48:57;13.20;99.90
17859;DHT22;35426;30.698;104.050;2023-12-29T11:51:39;13.10;99.90
17859;DHT22;35426;30.698;104.050;2023-12-29T11:54:22;13.10;99.90
17859;DHT22;35426;30.698;104.050;2023-12-29T11:56:57;13.10;99.90
17859;DHT22;35426;30.698;104.050;2023-12-29T11:59:47;13.10;99.90
17859;DHT22;35426;30.698;104.050;2023-12-29T12:02:28;13.10;99.90
17859;DHT22;35426;30.698;104.050;2023-12-29T12:05:09;13.10;99.90
17859;DHT22;35426;30.698;104.050;2023-12-29T12:07:59;13.10;99.90
17859;DHT22;35426;30.698;104.050;2023-12-29T12:10:33;13.10;99.90
17859;DHT22;35426;30.698;104.050;2023-12-29T12:13:11;13.10;99.90
17859;DHT22;35426;30.698;104.050;2023-12-29T12:15:45;13.10;99.90
17859;DHT22;35426;30.698;104.050;2023-12-29T12:18:19;13.00;99.90
17859;DHT22;35426;30.698;104.050;2023-12-29T12:20:56;12.90;99.90
17859;DHT22;35426;30.698;104.050;2023-12-29T12:23:34;12.70;99.90
17859;DHT22;35426;30.698;104.050;2023-12-29T12:26:12;12.60;99.90
17859;DHT22;35426;30.698;104.050;2023-12-29T12:28:46;12.60;99.90
17859;DHT22;35426;30.698;104.050;2023-12-29T12:31:27;12.40;99.90
17859;DHT22;35426;30.698;104.050;2023-12-29T12:34:05;12.50;99.90
17859;DHT22;35426;30.698;104.050;2023-12-29T12:36:49;12.50;99.90
17859;DHT22;35426;30.698;104.050;2023-12-29T12:39:39;12.50;99.90
17859;DHT22;35426;30.698;104.050;2023-12-29T12:42:14;12.50;99.90
17859;DHT22;35426;30.698;104.050;2023-12-29T12:44:53;12.40;99.90
17859;DHT22;35426;30.698;104.050;2023-12-29T12:47:34;12.30;99.90
17859;DHT22;35426;30.698;104.050;2023-12-29T12:50:09;12.30;99.90
17859;DHT22;35426;30.698;104.050;2023-12-29T12:52:45;12.30;99.90
17859;DHT22;35426;30.698;104.050;2023-12-29T12:55:22;12.30;99.90
17859;DHT22;35426;30.698;104.050;2023-12-29T12:57:58;12.30;99.90
17859;DHT22;35426;30.698;104.050;2023-12-29T13:00:32;12.30;99.90
17859;DHT22;35426;30.698;104.050;2023-12-29T13:03:10;12.30;99.90
17859;DHT22;35426;30.698;104.050;2023-12-29T13:05:45;12.30;99.90
17859;DHT22;35426;30.698;104.050;2023-12-29T13:08:22;12.30;99.90
17859;DHT22;35426;30.698;104.050;2023-12-29T13:11:06;12.30;99.90
17859;DHT22;35426;30.698;104.050;2023-12-29T13:13:41;12.20;99.90
17859;DHT22;35426;30.698;104.050;2023-12-29T13:16:16;12.00;99.90
17859;DHT22;35426;30.698;104.050;2023-12-29T13:18:49;12.00;99.90
17859;DHT22;35426;30.698;104.050;2023-12-29T13:21:23;12.00;99.90
17859;DHT22;35426;30.698;104.050;2023-12-29T13:24:04;12.00;99.90
17859;DHT22;35426;30.698;104.050;2023-12-29T13:26:38;12.00;99.90
17859;DHT22;35426;30.698;104.050;2023-12-29T13:29:13;12.00;99.90
17859;DHT22;35426;30.698;104.050;2023-12-29T13:31:49;12.00;99.90
17859;DHT22;35426;30.698;104.050;2023-12-29T13:34:30;12.10;99.90
17859;DHT22;35426;30.698;104.050;2023-12-29T13:37:14;12.10;99.90
17859;DHT22;35426;30.698;104.050;2023-12-29T13:39:58;12.10;99.90
17859;DHT22;35426;30.698;104.050;2023-12-29T13:42:35;12.00;99.90
17859;DHT22;35426;30.698;104.050;2023-12-29T13:45:10;12.00;99.90
17859;DHT22;35426;30.698;104.050;2023-12-29T13:47:46;12.00;99.90
17859;DHT22;35426;30.698;104.050;2023-12-29T13:50:20;11.90;99.90
17859;DHT22;35426;30.698;104.050;2023-12-29T13:52:57;11.80;99.90
17859;DHT22;35426;30.698;104.050;2023-12-29T13:55:33;11.80;99.90
17859;DHT22;35426;30.698;104.050;2023-12-29T13:58:10;11.80;99.90
17859;DHT22;35426;30.698;104.050;2023-12-29T14:00:53;11.90;99.90
17859;DHT22;35426;30.698;104.050;2023-12-29T14:03:31;11.90;99.90
17859;DHT22;35426;30.698;104.050;2023-12-29T14:06:09;11.90;99.90
17859;DHT22;35426;30.698;104.050;2023-12-29T14:08:50;11.80;99.90
17859;DHT22;35426;30.698;104.050;2023-12-29T14:11:30;11.80;99.90
17859;DHT22;35426;30.698;104.050;2023-12-29T14:14:04;11.80;99.90
17859;DHT22;35426;30.698;104.050;2023-12-29T14:16:40;11.90;99.90
17859;DHT22;35426;30.698;104.050;2023-12-29T14:19:14;11.70;99.90
17859;DHT22;35426;30.698;104.050;2023-12-29T14:21:52;11.60;99.90
17859;DHT22;35426;30.698;104.050;2023-12-29T14:24:27;11.50;99.90
17859;DHT22;35426;30.698;104.050;2023-12-29T14:27:10;11.50;99.90
17859;DHT22;35426;30.698;104.050;2023-12-29T14:29:47;11.50;99.90
17859;DHT22;35426;30.698;104.050;2023-12-29T14:32:21;11.60;99.90
17859;DHT22;35426;30.698;104.050;2023-12-29T14:34:56;11.50;99.90
17859;DHT22;35426;30.698;104.050;2023-12-29T14:37:29;11.50;99.90
17859;DHT22;35426;30.698;104.050;2023-12-29T14:40:04;11.40;99.90
17859;DHT22;35426;30.698;104.050;2023-12-29T14:42:40;11.30;99.90
17859;DHT22;35426;30.698;104.050;2023-12-29T14:45:15;11.40;99.90
17859;DHT22;35426;30.698;104.050;2023-12-29T14:47:48;11.40;99.90
17859;DHT22;35426;30.698;104.050;2023-12-29T14:50:22;11.40;99.90
17859;DHT22;35426;30.698;104.050;2023-12-29T14:52:57;11.50;99.90
17859;DHT22;35426;30.698;104.050;2023-12-29T14:55:33;11.30;99.90
17859;DHT22;35426;30.698;104.050;2023-12-29T14:58:10;11.20;99.90
17859;DHT22;35426;30.698;104.050;2023-12-29T15:00:45;11.20;99.90
17859;DHT22;35426;30.698;104.050;2023-12-29T15:03:19;11.20;99.90
17859;DHT22;35426;30.698;104.050;2023-12-29T15:05:56;11.30;99.90
17859;DHT22;35426;30.698;104.050;2023-12-29T15:08:30;11.30;99.90
17859;DHT22;35426;30.698;104.050;2023-12-29T15:11:07;11.40;99.90
17859;DHT22;35426;30.698;104.050;2023-12-29T15:13:44;11.40;99.90
17859;DHT22;35426;30.698;104.050;2023-12-29T15:16:22;11.40;99.90
17859;DHT22;35426;30.698;104.050;2023-12-29T15:18:56;11.40;99.90
17859;DHT22;35426;30.698;104.050;2023-12-29T15:21:35;11.30;99.90
17859;DHT22;35426;30.698;104.050;2023-12-29T15:24:12;11.30;99.90
17859;DHT22;35426;30.698;104.050;2023-12-29T15:26:47;11.20;99.90
17859;DHT22;35426;30.698;104.050;2023-12-29T15:29:24;11.10;99.90
17859;DHT22;35426;30.698;104.050;2023-12-29T15:32:03;11.00;99.90
17859;DHT22;35426;30.698;104.050;2023-12-29T15:34:38;11.00;99.90
17859;DHT22;35426;30.698;104.050;2023-12-29T15:37:12;11.10;99.90
17859;DHT22;35426;30.698;104.050;2023-12-29T15:39:46;11.00;99.90
17859;DHT22;35426;30.698;104.050;2023-12-29T15:42:21;11.10;99.90
17859;DHT22;35426;30.698;104.050;2023-12-29T15:44:59;11.00;99.90
17859;DHT22;35426;30.698;104.050;2023-12-29T15:47:33;11.10;99.90
17859;DHT22;35426;30.698;104.050;2023-12-29T15:50:08;11.20;99.90
17859;DHT22;35426;30.698;104.050;2023-12-29T15:52:42;11.00;99.90
17859;DHT22;35426;30.698;104.050;2023-12-29T15:55:19;10.90;99.90
17859;DHT22;35426;30.698;104.050;2023-12-29T15:57:53;10.90;99.90
17859;DHT22;35426;30.698;104.050;2023-12-29T16:00:31;10.90;99.90